createdAt,value
2018-10-02T00:01:38.744Z,18.8
2018-10-02T00:06:36.690Z,18.8
2018-10-02T00:11:34.494Z,18.7
2018-10-02T00:16:32.402Z,17.9
2018-10-02T00:21:30.040Z,18.1
2018-10-02T00:26:27.731Z,18.1
2018-10-02T00:31:25.771Z,18.1
2018-10-02T00:36:23.709Z,18.6
2018-10-02T00:41:21.586Z,18
2018-10-02T00:46:19.378Z,18.5
2018-10-02T00:51:17.025Z,18.5
2018-10-02T00:56:14.636Z,18.4
2018-10-02T01:01:12.436Z,18.4
2018-10-02T01:06:10.327Z,17.6
2018-10-02T01:11:08.090Z,17.8
2018-10-02T01:16:05.922Z,17.5
2018-10-02T01:21:03.767Z,17.8
2018-10-02T01:26:01.539Z,18.2
2018-10-02T01:30:58.933Z,17.6
2018-10-02T01:35:56.938Z,17.6
2018-10-02T01:40:54.639Z,17.5
2018-10-02T01:45:52.224Z,18.1
2018-10-02T01:50:49.936Z,17.5
2018-10-02T01:55:47.893Z,17.5
2018-10-02T02:00:45.762Z,18
2018-10-02T02:05:43.534Z,18
2018-10-02T02:10:41.351Z,17.4
2018-10-02T02:15:39.140Z,17.9
2018-10-02T02:20:36.920Z,17.3
2018-10-02T02:25:34.826Z,17.3
2018-10-02T02:30:32.580Z,17.2
2018-10-02T02:35:30.348Z,17.8
2018-10-02T02:40:27.996Z,17.1
2018-10-02T02:45:25.444Z,17.7
2018-10-02T02:50:23.286Z,17.6
2018-10-02T02:55:20.393Z,17.6
2018-10-02T03:00:18.225Z,17
2018-10-02T03:05:16.036Z,17.5
2018-10-02T03:10:13.980Z,17.5
2018-10-02T03:15:11.802Z,17.5
2018-10-02T03:20:09.605Z,17.4
2018-10-02T03:25:07.101Z,17.4
2018-10-02T03:30:05.461Z,17.4
2018-10-02T03:35:03.281Z,17.3
2018-10-02T03:40:01.153Z,17.3
2018-10-02T03:44:59.004Z,17.3
2018-10-02T03:49:56.569Z,16.7
2018-10-02T03:54:53.994Z,16.7
2018-10-02T03:59:51.875Z,16.6
2018-10-02T04:04:49.727Z,17.1
2018-10-02T04:09:47.839Z,16.5
2018-10-02T04:14:45.275Z,17
2018-10-02T04:19:42.890Z,17
2018-10-02T04:24:40.287Z,17
2018-10-02T04:29:38.037Z,16.9
2018-10-02T04:34:35.703Z,16.9
2018-10-02T04:39:33.586Z,16.9
2018-10-02T04:44:31.547Z,16.8
2018-10-02T04:49:29.556Z,16.2
2018-10-02T04:54:27.235Z,16.8
2018-10-02T04:59:25.259Z,16.5
2018-10-02T05:04:23.170Z,16.7
2018-10-02T05:09:21.184Z,16.7
2018-10-02T05:14:19.144Z,16.6
2018-10-02T05:19:16.915Z,16.6
2018-10-02T05:24:15.126Z,16.1
2018-10-02T05:29:13.121Z,16
2018-10-02T05:34:10.953Z,16
2018-10-02T05:39:08.252Z,16.5
2018-10-02T05:44:06.133Z,16.5
2018-10-02T05:49:04.189Z,16.5
2018-10-02T05:54:02.233Z,16
2018-10-02T05:59:00.298Z,16.5
2018-10-02T06:03:57.448Z,16.5
2018-10-02T06:08:55.387Z,16.4
2018-10-02T06:13:53.403Z,16.4
2018-10-02T06:18:51.274Z,15.8
2018-10-02T06:23:49.334Z,16.4
2018-10-02T06:28:47.185Z,16.4
2018-10-02T06:33:45.054Z,16.4
2018-10-02T06:38:42.979Z,16.2
2018-10-02T06:43:41.006Z,15.7
2018-10-02T06:48:38.793Z,16.1
2018-10-02T06:53:36.992Z,15.8
2018-10-02T06:58:34.567Z,16.3
2018-10-02T07:03:32.478Z,15.5
2018-10-02T07:08:30.418Z,16.3
2018-10-02T07:13:28.566Z,16.3
2018-10-02T07:18:26.744Z,15.7
2018-10-02T07:23:24.699Z,16.3
2018-10-02T07:28:23.331Z,16.4
2018-10-02T07:33:21.376Z,16.4
2018-10-02T07:38:19.116Z,16.4
2018-10-02T07:43:17.045Z,16.4
2018-10-02T07:48:14.772Z,16.4
2018-10-02T07:53:12.808Z,16.5
2018-10-02T07:58:10.602Z,16.5
2018-10-02T08:03:08.613Z,16.1
2018-10-02T08:08:06.642Z,16.5
2018-10-02T08:13:04.300Z,16.1
2018-10-02T08:18:02.456Z,16.6
2018-10-02T08:23:00.799Z,16.6
2018-10-02T08:27:58.584Z,16.7
2018-10-02T08:32:56.502Z,16.7
2018-10-02T08:37:53.961Z,16.7
2018-10-02T08:42:52.016Z,16.8
2018-10-02T08:47:50.143Z,16.8
2018-10-02T08:52:48.289Z,16.9
2018-10-02T08:57:46.516Z,16.9
2018-10-02T09:02:44.716Z,17
2018-10-02T09:07:42.610Z,16.5
2018-10-02T09:12:40.693Z,17.1
2018-10-02T09:17:38.547Z,16.5
2018-10-02T09:22:36.739Z,16.1
2018-10-02T09:27:34.926Z,17.2
2018-10-02T09:32:32.944Z,17.2
2018-10-02T09:37:31.308Z,17.3
2018-10-02T09:42:29.709Z,17.3
2018-10-02T09:47:27.394Z,16.9
2018-10-02T09:52:25.317Z,17.4
2018-10-02T09:57:23.159Z,17.2
2018-10-02T10:02:21.167Z,17.5
2018-10-02T10:07:19.263Z,17
2018-10-02T10:12:17.874Z,17.6
2018-10-02T10:17:16.191Z,17.7
2018-10-02T10:22:14.311Z,17.7
2018-10-02T10:27:12.375Z,17.8
2018-10-02T10:32:10.731Z,17.9
2018-10-02T10:37:08.861Z,17.9
2018-10-02T10:42:06.948Z,18
2018-10-02T10:47:05.066Z,18
2018-10-02T10:52:02.943Z,18.1
2018-10-02T10:57:01.068Z,18.1
2018-10-02T11:01:59.241Z,18.2
2018-10-02T11:06:57.388Z,17.7
2018-10-02T11:11:55.811Z,17.3
2018-10-02T11:16:53.623Z,18.4
2018-10-02T11:21:51.795Z,18.4
2018-10-02T11:26:49.887Z,18.5
2018-10-02T11:31:48.269Z,18.6
2018-10-02T11:36:46.405Z,18.6
2018-10-02T11:41:44.377Z,18.7
2018-10-02T11:46:42.648Z,18
2018-10-02T11:51:41.027Z,17.8
2018-10-02T11:56:39.106Z,18.4
2018-10-02T12:01:37.449Z,18.9
2018-10-02T12:06:35.582Z,19
2018-10-02T12:11:34.057Z,19.1
2018-10-02T12:16:32.762Z,19.2
2018-10-02T12:21:30.823Z,19.3
2018-10-02T12:26:28.888Z,18.6
2018-10-02T12:31:26.888Z,19.4
2018-10-02T12:36:25.160Z,19.5
2018-10-02T12:41:23.284Z,19.5
2018-10-02T12:46:21.396Z,19.6
2018-10-02T12:51:20.019Z,18.9
2018-10-02T12:56:18.086Z,19.8
2018-10-02T13:06:22.346Z,19.2
2018-10-02T13:11:20.340Z,20
2018-10-02T13:16:18.442Z,19.3
2018-10-02T13:21:16.400Z,20.1
2018-10-02T13:26:14.457Z,20.2
2018-10-02T13:31:12.582Z,20.3
2018-10-02T13:36:10.738Z,19.8
2018-10-02T13:41:08.751Z,20.4
2018-10-02T13:46:06.746Z,20.5
2018-10-02T13:51:04.588Z,20.5
2018-10-02T13:56:02.629Z,20.6
2018-10-02T14:01:00.899Z,20.6
2018-10-02T14:05:58.929Z,19.7
2018-10-02T14:10:57.000Z,19.8
2018-10-02T14:15:55.055Z,20.8
2018-10-02T14:20:53.132Z,20.9
2018-10-02T14:25:51.339Z,20
2018-10-02T14:30:49.397Z,21
2018-10-02T14:35:47.731Z,21
2018-10-02T14:40:45.730Z,21.1
2018-10-02T14:45:43.748Z,21.1
2018-10-02T14:50:41.693Z,21.2
2018-10-02T14:55:39.767Z,21.2
2018-10-02T15:00:37.595Z,21.3
2018-10-02T15:05:35.728Z,21.3
2018-10-02T15:10:33.851Z,21.3
2018-10-02T15:15:31.793Z,21.4
2018-10-02T15:20:29.783Z,21.4
2018-10-02T15:25:27.336Z,21.5
2018-10-02T15:30:25.374Z,21.5
2018-10-02T15:35:23.466Z,20.7
2018-10-02T15:40:21.419Z,21.5
2018-10-02T15:45:19.431Z,20.9
2018-10-02T15:50:17.476Z,21.6
2018-10-02T15:55:15.548Z,20.6
2018-10-02T16:00:13.631Z,21.6
2018-10-02T16:05:11.483Z,21.6
2018-10-02T16:10:09.200Z,21.7
2018-10-02T16:15:07.330Z,21.7
2018-10-02T16:20:05.429Z,21.7
2018-10-02T16:25:03.626Z,21.7
2018-10-02T16:30:01.681Z,21.7
2018-10-02T16:34:59.673Z,21.7
2018-10-02T16:39:58.030Z,21.7
2018-10-02T16:44:55.753Z,21.7
2018-10-02T16:49:53.905Z,21.7
2018-10-02T16:54:52.131Z,21.7
2018-10-02T16:59:50.560Z,21.5
2018-10-02T17:04:48.581Z,21.7
2018-10-02T17:09:46.586Z,21.7
2018-10-02T17:14:45.421Z,20.7
2018-10-02T17:19:43.603Z,21.7
2018-10-02T17:24:41.640Z,21.7
2018-10-02T17:29:39.640Z,21.7
2018-10-02T17:34:37.509Z,21.5
2018-10-02T17:39:35.247Z,21.7
2018-10-02T18:24:32.959Z,21.6
2018-10-02T18:29:30.825Z,21.6
2018-10-02T18:34:28.762Z,21
2018-10-02T18:39:26.696Z,21.5
2018-10-02T18:44:30.299Z,21.5
2018-10-02T18:49:29.755Z,21.5
2018-10-02T18:54:27.763Z,20.7
2018-10-02T18:59:25.733Z,21.4
2018-10-02T19:04:23.680Z,20.9
2018-10-02T19:09:21.776Z,21.4
2018-10-02T19:14:19.646Z,21.4
2018-10-02T19:19:17.759Z,21.3
2018-10-02T19:24:15.930Z,20.3
2018-10-02T19:29:13.823Z,21.3
2018-10-02T19:34:11.653Z,21.2
2018-10-02T19:39:09.660Z,21.2
2018-10-02T19:44:07.670Z,20.5
2018-10-02T19:49:05.633Z,21.2
2018-10-02T19:54:03.346Z,21.2
2018-10-02T19:59:01.332Z,21.1
2018-10-02T20:03:59.425Z,21.1
2018-10-02T20:08:57.583Z,20.5
2018-10-02T20:13:55.572Z,21.1
2018-10-02T20:18:53.641Z,21
2018-10-02T20:23:51.521Z,21
2018-10-02T20:28:49.409Z,21
2018-10-02T20:33:47.409Z,21
2018-10-02T20:38:45.389Z,20.9
2018-10-02T20:43:43.363Z,20.9
2018-10-02T20:48:41.422Z,20.9
2018-10-02T20:53:38.729Z,20.8
2018-10-02T20:58:36.691Z,20.8
2018-10-02T21:03:34.640Z,20.8
2018-10-02T21:08:32.596Z,20.7
2018-10-02T21:13:30.490Z,20.7
2018-10-02T21:18:28.490Z,20.7
2018-10-02T21:23:26.458Z,20.6
2018-10-02T21:28:24.535Z,20.6
2018-10-02T21:33:22.431Z,20.5
2018-10-02T21:38:20.317Z,20.5
2018-10-02T21:43:18.386Z,20.5
2018-10-02T21:48:16.235Z,20.4
2018-10-02T21:53:13.994Z,20.4
2018-10-02T21:58:11.997Z,20.4
2018-10-02T22:03:09.908Z,19.5
2018-10-02T22:08:07.868Z,20.3
2018-10-02T22:13:05.176Z,20.3
2018-10-02T22:18:02.376Z,20.2
2018-10-02T22:22:59.675Z,20.2
2018-10-02T22:27:57.534Z,20.2
2018-10-02T22:32:54.930Z,20.1
2018-10-02T22:37:52.644Z,20.1
2018-10-02T22:42:50.561Z,20
2018-10-02T22:47:48.681Z,19
2018-10-02T22:52:46.620Z,20
2018-10-02T22:57:44.408Z,19.9
2018-10-02T23:02:42.311Z,19.9
2018-10-02T23:07:40.079Z,19.8
2018-10-02T23:12:38.060Z,19.8
2018-10-02T23:17:35.999Z,19.8
2018-10-02T23:22:33.978Z,19.7
2018-10-02T23:27:31.932Z,19.7
2018-10-02T23:32:29.477Z,19.6
2018-10-02T23:37:27.352Z,19.6
2018-10-02T23:42:24.936Z,19.6
2018-10-02T23:47:22.859Z,19.5
2018-10-02T23:52:20.871Z,19.5
2018-10-02T23:57:18.624Z,19.4
